Airfield :
LOGIN :

Register | Disclaimer

   EN    FR    IT 

 










Legend :    VFR   Marginal VFR   IFR   Intensive IFR   Very Intensive IFR
Visi :
Ceiling :
>= 8 km
>= 3000ft
5 to 8 km
1000 to 3000 ft
1500m to 5 km
500 to 1000 ft
800 to 1500m
200 to 500 ft
< 800m
< 200 ft
Symbols :   Thunderstorms  Fog  Heavy snow  Heavy precipitations  Wind > 20 kt
SIGMETs :     Misc.  Thunderstorms  Icing  Turbulence  Mountain Waves  Volcanic Ashes






- Airport Elevation : 1470 ft


LSMD - Dubendorf Military

CURRENT METAR :
  • 271620Z AUTO 27004KT 230V300 6000NDV -RA FEW024 BKN034 OVC077 15/14 Q1018 RMK

EXPIRED METARs :
  • 271550Z AUTO 29003KT 260V320 9999NDV -RA SCT031 BKN067 BKN085 17/15 Q1018 RMK
  • 271520Z AUTO VRB02KT 9999NDV -RA FEW031 BKN065 BKN087 17/14 Q1018 RMK
  • 271450Z 31003KT 260V010 9999 SCT074 BKN090 18/14 Q1018 RMK BLU
  • 271420Z VRB02KT 9999 FEW030 BKN070 18/14 Q1018 RMK BLU
  • 271350Z 34003KT 260V020 9999 FEW011 BKN076 18/14 Q1018 RMK BLU
  • 271320Z 31005KT 210V020 9999 SCT010 BKN110 18/15 Q1018 RMK BLU
  • 271250Z 07003KT 330V120 9999 -SHRA FEW008 BKN029 15/15 Q1019 RERA RMK BLU
  • 271220Z 33007KT 9000 SHRA FEW009 SCT026 OVC047 16/15 Q1019 RMK BLU
  • 271150Z 34005KT 300V020 9999 -SHRA FEW025 SCT037 BKN048 16/14 Q1019 RMK BLU

Expired Forecast.



MET'MAP, your aeronautical weather chart ! - Copyright ORBIFLY December 2007 - Disclaimer

ORBIFLY MET'MAP TEAM :

Programming & Development : Alexandra Zaïnal
Original concept : Baudouin d'Aumeries
Technical & hardware support : Manuel Goepfert
Assistance : Marc-Olivier Méhu




SOURCES & CREDITS :

   NOAA